sensor_id;sensor_type;location;lat;lon;timestamp;temperature;humidity
78325;DHT22;67584;51.400;6.692;2023-04-03T00:01:28;-3276.20;88.00
78325;DHT22;67584;51.400;6.692;2023-04-03T00:03:54;-3276.20;88.00
78325;DHT22;67584;51.400;6.692;2023-04-03T00:06:21;-3276.20;88.20
78325;DHT22;67584;51.400;6.692;2023-04-03T00:08:47;-3276.10;88.10
78325;DHT22;67584;51.400;6.692;2023-04-03T00:11:13;-3276.10;88.00
78325;DHT22;67584;51.400;6.692;2023-04-03T00:13:40;-3276.00;88.00
78325;DHT22;67584;51.400;6.692;2023-04-03T00:16:07;-3276.00;88.30
78325;DHT22;67584;51.400;6.692;2023-04-03T00:18:33;-3275.90;88.30
78325;DHT22;67584;51.400;6.692;2023-04-03T00:20:59;-3275.90;88.60
78325;DHT22;67584;51.400;6.692;2023-04-03T00:23:25;-3276.20;88.70
78325;DHT22;67584;51.400;6.692;2023-04-03T00:25:52;-3276.00;88.70
78325;DHT22;67584;51.400;6.692;2023-04-03T00:28:17;-3276.10;88.80
78325;DHT22;67584;51.400;6.692;2023-04-03T00:30:43;-3275.80;88.80
78325;DHT22;67584;51.400;6.692;2023-04-03T00:33:12;-3275.90;89.10
78325;DHT22;67584;51.400;6.692;2023-04-03T00:35:38;-3275.90;89.10
78325;DHT22;67584;51.400;6.692;2023-04-03T00:38:04;-3275.90;88.90
78325;DHT22;67584;51.400;6.692;2023-04-03T00:40:36;-3276.00;89.20
78325;DHT22;67584;51.400;6.692;2023-04-03T00:43:13;-3276.00;89.30
78325;DHT22;67584;51.400;6.692;2023-04-03T00:45:41;-3275.90;89.40
78325;DHT22;67584;51.400;6.692;2023-04-03T00:48:09;-3276.10;89.40
78325;DHT22;67584;51.400;6.692;2023-04-03T00:50:40;-3275.90;89.40
78325;DHT22;67584;51.400;6.692;2023-04-03T00:53:10;-3276.00;89.20
78325;DHT22;67584;51.400;6.692;2023-04-03T00:55:38;-3275.90;89.30
78325;DHT22;67584;51.400;6.692;2023-04-03T00:58:05;-3275.90;89.50
78325;DHT22;67584;51.400;6.692;2023-04-03T01:00:32;-3275.80;89.30
78325;DHT22;67584;51.400;6.692;2023-04-03T01:02:58;-3275.90;89.30
78325;DHT22;67584;51.400;6.692;2023-04-03T01:05:25;-3275.90;89.40
78325;DHT22;67584;51.400;6.692;2023-04-03T01:07:51;-3275.80;89.50
78325;DHT22;67584;51.400;6.692;2023-04-03T01:10:19;-3275.90;89.60
78325;DHT22;67584;51.400;6.692;2023-04-03T01:12:48;-3275.80;89.60
78325;DHT22;67584;51.400;6.692;2023-04-03T01:15:22;-3275.70;89.60
78325;DHT22;67584;51.400;6.692;2023-04-03T01:17:53;-3275.70;89.70
78325;DHT22;67584;51.400;6.692;2023-04-03T01:23:10;-3275.60;90.00
78325;DHT22;67584;51.400;6.692;2023-04-03T01:25:42;-3275.80;90.00
78325;DHT22;67584;51.400;6.692;2023-04-03T01:28:11;-3275.70;90.40
78325;DHT22;67584;51.400;6.692;2023-04-03T01:30:44;-3276.10;90.50
78325;DHT22;67584;51.400;6.692;2023-04-03T01:33:11;-3275.80;90.60
78325;DHT22;67584;51.400;6.692;2023-04-03T01:35:37;-3276.10;90.60
78325;DHT22;67584;51.400;6.692;2023-04-03T01:38:03;-3275.90;90.70
78325;DHT22;67584;51.400;6.692;2023-04-03T01:40:28;-3276.20;91.20
78325;DHT22;67584;51.400;6.692;2023-04-03T01:42:54;-3276.10;91.20
78325;DHT22;67584;51.400;6.692;2023-04-03T01:45:20;-3276.20;91.60
78325;DHT22;67584;51.400;6.692;2023-04-03T01:47:45;-3276.40;92.00
78325;DHT22;67584;51.400;6.692;2023-04-03T01:50:11;-3276.40;91.90
78325;DHT22;67584;51.400;6.692;2023-04-03T01:52:37;-3276.60;91.90
78325;DHT22;67584;51.400;6.692;2023-04-03T01:55:03;-3276.60;92.00
78325;DHT22;67584;51.400;6.692;2023-04-03T01:57:29;-3276.70;92.10
78325;DHT22;67584;51.400;6.692;2023-04-03T01:59:54;0.00;92.00
78325;DHT22;67584;51.400;6.692;2023-04-03T02:02:20;-3276.70;92.00
78325;DHT22;67584;51.400;6.692;2023-04-03T02:04:46;0.00;91.90
78325;DHT22;67584;51.400;6.692;2023-04-03T02:07:11;0.00;91.60
78325;DHT22;67584;51.400;6.692;2023-04-03T02:09:37;0.30;91.20
78325;DHT22;67584;51.400;6.692;2023-04-03T02:12:03;0.00;91.00
78325;DHT22;67584;51.400;6.692;2023-04-03T02:14:30;0.30;90.70
78325;DHT22;67584;51.400;6.692;2023-04-03T02:16:55;0.20;90.50
78325;DHT22;67584;51.400;6.692;2023-04-03T02:19:22;0.40;90.10
78325;DHT22;67584;51.400;6.692;2023-04-03T02:21:48;0.20;90.00
78325;DHT22;67584;51.400;6.692;2023-04-03T02:24:14;0.20;90.00
78325;DHT22;67584;51.400;6.692;2023-04-03T02:26:40;0.20;89.80
78325;DHT22;67584;51.400;6.692;2023-04-03T02:29:05;0.20;89.90
78325;DHT22;67584;51.400;6.692;2023-04-03T02:31:31;0.30;89.50
78325;DHT22;67584;51.400;6.692;2023-04-03T02:33:59;0.30;89.40
78325;DHT22;67584;51.400;6.692;2023-04-03T02:36:24;0.30;89.60
78325;DHT22;67584;51.400;6.692;2023-04-03T02:38:55;0.20;89.80
78325;DHT22;67584;51.400;6.692;2023-04-03T02:41:20;0.00;89.70
78325;DHT22;67584;51.400;6.692;2023-04-03T02:43:47;0.10;89.60
78325;DHT22;67584;51.400;6.692;2023-04-03T02:46:12;0.10;89.70
78325;DHT22;67584;51.400;6.692;2023-04-03T02:48:40;0.00;89.70
78325;DHT22;67584;51.400;6.692;2023-04-03T02:51:06;0.00;89.80
78325;DHT22;67584;51.400;6.692;2023-04-03T02:53:32;0.00;89.80
78325;DHT22;67584;51.400;6.692;2023-04-03T02:56:02;0.10;89.80
78325;DHT22;67584;51.400;6.692;2023-04-03T02:58:28;-3276.60;89.60
78325;DHT22;67584;51.400;6.692;2023-04-03T03:00:56;0.10;89.70
78325;DHT22;67584;51.400;6.692;2023-04-03T03:03:21;0.20;89.40
78325;DHT22;67584;51.400;6.692;2023-04-03T03:05:47;-3276.70;89.40
78325;DHT22;67584;51.400;6.692;2023-04-03T03:08:13;0.00;89.40
78325;DHT22;67584;51.400;6.692;2023-04-03T03:10:39;0.00;89.50
78325;DHT22;67584;51.400;6.692;2023-04-03T03:13:06;0.00;89.70
78325;DHT22;67584;51.400;6.692;2023-04-03T03:15:32;0.00;89.40
78325;DHT22;67584;51.400;6.692;2023-04-03T03:17:57;0.00;89.20
78325;DHT22;67584;51.400;6.692;2023-04-03T03:20:23;0.10;89.20
78325;DHT22;67584;51.400;6.692;2023-04-03T03:22:49;0.00;89.20
78325;DHT22;67584;51.400;6.692;2023-04-03T03:25:15;-3276.70;89.10
78325;DHT22;67584;51.400;6.692;2023-04-03T03:27:40;0.00;89.00
78325;DHT22;67584;51.400;6.692;2023-04-03T03:30:06;0.10;89.00
78325;DHT22;67584;51.400;6.692;2023-04-03T03:32:33;-3276.70;89.00
78325;DHT22;67584;51.400;6.692;2023-04-03T03:34:58;0.10;88.70
78325;DHT22;67584;51.400;6.692;2023-04-03T03:37:25;0.10;88.20
78325;DHT22;67584;51.400;6.692;2023-04-03T03:39:50;0.10;88.20
78325;DHT22;67584;51.400;6.692;2023-04-03T03:42:16;0.10;88.00
78325;DHT22;67584;51.400;6.692;2023-04-03T03:44:42;0.00;87.80
78325;DHT22;67584;51.400;6.692;2023-04-03T03:47:08;0.00;87.60
78325;DHT22;67584;51.400;6.692;2023-04-03T03:49:36;0.10;87.60
78325;DHT22;67584;51.400;6.692;2023-04-03T03:52:02;0.10;87.40
78325;DHT22;67584;51.400;6.692;2023-04-03T03:54:28;0.20;87.40
78325;DHT22;67584;51.400;6.692;2023-04-03T03:56:54;0.10;87.10
78325;DHT22;67584;51.400;6.692;2023-04-03T03:59:20;0.10;87.10
78325;DHT22;67584;51.400;6.692;2023-04-03T04:01:46;0.10;86.90
78325;DHT22;67584;51.400;6.692;2023-04-03T04:04:12;0.00;87.10
78325;DHT22;67584;51.400;6.692;2023-04-03T04:06:38;0.00;86.90
78325;DHT22;67584;51.400;6.692;2023-04-03T04:09:08;0.20;87.10
78325;DHT22;67584;51.400;6.692;2023-04-03T04:11:34;0.00;87.20
78325;DHT22;67584;51.400;6.692;2023-04-03T04:13:59;0.10;87.20
78325;DHT22;67584;51.400;6.692;2023-04-03T04:16:28;0.20;87.00
78325;DHT22;67584;51.400;6.692;2023-04-03T04:18:55;0.20;86.60
78325;DHT22;67584;51.400;6.692;2023-04-03T04:21:22;0.30;86.10
78325;DHT22;67584;51.400;6.692;2023-04-03T04:23:50;0.00;86.00
78325;DHT22;67584;51.400;6.692;2023-04-03T04:26:16;0.20;85.80
78325;DHT22;67584;51.400;6.692;2023-04-03T04:28:42;0.30;85.70
78325;DHT22;67584;51.400;6.692;2023-04-03T04:31:08;0.30;86.10
78325;DHT22;67584;51.400;6.692;2023-04-03T04:33:34;0.20;86.00
78325;DHT22;67584;51.400;6.692;2023-04-03T04:36:03;0.00;85.80
78325;DHT22;67584;51.400;6.692;2023-04-03T04:38:28;0.20;86.10
78325;DHT22;67584;51.400;6.692;2023-04-03T04:40:54;0.10;85.90
78325;DHT22;67584;51.400;6.692;2023-04-03T04:43:21;0.00;85.90
78325;DHT22;67584;51.400;6.692;2023-04-03T04:46:03;0.40;85.60
78325;DHT22;67584;51.400;6.692;2023-04-03T04:48:34;0.20;85.80
78325;DHT22;67584;51.400;6.692;2023-04-03T04:51:00;0.30;85.40
78325;DHT22;67584;51.400;6.692;2023-04-03T04:53:26;0.10;85.80
78325;DHT22;67584;51.400;6.692;2023-04-03T04:55:52;0.10;85.40
78325;DHT22;67584;51.400;6.692;2023-04-03T04:58:19;0.00;85.40
78325;DHT22;67584;51.400;6.692;2023-04-03T05:00:45;0.10;85.40
78325;DHT22;67584;51.400;6.692;2023-04-03T05:03:11;0.00;85.50
78325;DHT22;67584;51.400;6.692;2023-04-03T05:05:37;0.10;85.30
78325;DHT22;67584;51.400;6.692;2023-04-03T05:08:03;0.10;85.30
78325;DHT22;67584;51.400;6.692;2023-04-03T05:10:29;0.00;85.10
78325;DHT22;67584;51.400;6.692;2023-04-03T05:12:55;0.00;85.40
78325;DHT22;67584;51.400;6.692;2023-04-03T05:15:21;0.30;84.90
78325;DHT22;67584;51.400;6.692;2023-04-03T05:17:47;0.10;85.00
78325;DHT22;67584;51.400;6.692;2023-04-03T05:20:14;0.20;84.80
78325;DHT22;67584;51.400;6.692;2023-04-03T05:22:41;0.10;84.70
78325;DHT22;67584;51.400;6.692;2023-04-03T05:25:10;0.30;84.60
78325;DHT22;67584;51.400;6.692;2023-04-03T05:27:37;0.30;84.40
78325;DHT22;67584;51.400;6.692;2023-04-03T05:30:03;0.40;84.50
78325;DHT22;67584;51.400;6.692;2023-04-03T05:32:30;0.10;84.70
78325;DHT22;67584;51.400;6.692;2023-04-03T05:35:09;0.20;84.60
78325;DHT22;67584;51.400;6.692;2023-04-03T05:37:35;0.40;84.70
78325;DHT22;67584;51.400;6.692;2023-04-03T05:40:03;0.20;84.50
78325;DHT22;67584;51.400;6.692;2023-04-03T05:42:29;0.30;84.40
78325;DHT22;67584;51.400;6.692;2023-04-03T05:44:55;0.50;84.10
78325;DHT22;67584;51.400;6.692;2023-04-03T05:47:21;0.50;84.00
78325;DHT22;67584;51.400;6.692;2023-04-03T05:49:47;0.40;84.00
78325;DHT22;67584;51.400;6.692;2023-04-03T05:52:25;0.60;84.00
78325;DHT22;67584;51.400;6.692;2023-04-03T05:54:53;0.60;83.70
78325;DHT22;67584;51.400;6.692;2023-04-03T05:57:23;0.60;83.80
78325;DHT22;67584;51.400;6.692;2023-04-03T05:59:50;0.70;83.70
78325;DHT22;67584;51.400;6.692;2023-04-03T06:02:19;0.70;83.50
78325;DHT22;67584;51.400;6.692;2023-04-03T06:04:46;0.80;83.20
78325;DHT22;67584;51.400;6.692;2023-04-03T06:07:18;0.70;83.20
78325;DHT22;67584;51.400;6.692;2023-04-03T06:09:47;0.80;82.90
78325;DHT22;67584;51.400;6.692;2023-04-03T06:12:13;0.80;82.70
78325;DHT22;67584;51.400;6.692;2023-04-03T06:14:39;0.90;82.80
78325;DHT22;67584;51.400;6.692;2023-04-03T06:17:05;1.10;82.70
78325;DHT22;67584;51.400;6.692;2023-04-03T06:19:31;0.90;82.50
78325;DHT22;67584;51.400;6.692;2023-04-03T06:21:57;1.10;82.10
78325;DHT22;67584;51.400;6.692;2023-04-03T06:24:23;1.10;81.30
78325;DHT22;67584;51.400;6.692;2023-04-03T06:26:51;1.20;81.40
78325;DHT22;67584;51.400;6.692;2023-04-03T06:29:21;1.20;80.70
78325;DHT22;67584;51.400;6.692;2023-04-03T06:31:47;1.20;80.80
78325;DHT22;67584;51.400;6.692;2023-04-03T06:34:13;1.20;80.80
78325;DHT22;67584;51.400;6.692;2023-04-03T06:36:41;1.30;80.60
78325;DHT22;67584;51.400;6.692;2023-04-03T06:39:10;1.40;80.50
78325;DHT22;67584;51.400;6.692;2023-04-03T06:41:38;1.60;79.70
78325;DHT22;67584;51.400;6.692;2023-04-03T06:44:04;1.60;79.80
78325;DHT22;67584;51.400;6.692;2023-04-03T06:46:30;1.60;79.90
78325;DHT22;67584;51.400;6.692;2023-04-03T06:48:56;1.70;78.80
78325;DHT22;67584;51.400;6.692;2023-04-03T06:51:26;1.70;78.90
78325;DHT22;67584;51.400;6.692;2023-04-03T06:53:55;1.70;78.90
78325;DHT22;67584;51.400;6.692;2023-04-03T06:56:21;1.80;78.40
78325;DHT22;67584;51.400;6.692;2023-04-03T06:58:47;2.10;77.20
78325;DHT22;67584;51.400;6.692;2023-04-03T07:01:15;2.00;77.60
78325;DHT22;67584;51.400;6.692;2023-04-03T07:03:41;2.20;77.00
78325;DHT22;67584;51.400;6.692;2023-04-03T07:06:10;2.40;76.80
78325;DHT22;67584;51.400;6.692;2023-04-03T07:08:36;2.30;76.60
78325;DHT22;67584;51.400;6.692;2023-04-03T07:11:02;2.40;76.50
78325;DHT22;67584;51.400;6.692;2023-04-03T07:13:28;2.50;75.30
78325;DHT22;67584;51.400;6.692;2023-04-03T07:15:54;2.60;75.70
78325;DHT22;67584;51.400;6.692;2023-04-03T07:18:20;2.70;75.60
78325;DHT22;67584;51.400;6.692;2023-04-03T07:20:47;2.70;75.50
78325;DHT22;67584;51.400;6.692;2023-04-03T07:23:12;2.90;75.20
78325;DHT22;67584;51.400;6.692;2023-04-03T07:25:49;3.00;74.30
78325;DHT22;67584;51.400;6.692;2023-04-03T07:28:15;2.90;74.40
78325;DHT22;67584;51.400;6.692;2023-04-03T07:30:46;3.00;74.10
78325;DHT22;67584;51.400;6.692;2023-04-03T07:33:14;3.10;74.00
78325;DHT22;67584;51.400;6.692;2023-04-03T07:35:41;3.30;73.30
78325;DHT22;67584;51.400;6.692;2023-04-03T07:38:07;3.20;72.90
78325;DHT22;67584;51.400;6.692;2023-04-03T07:40:33;3.40;72.70
78325;DHT22;67584;51.400;6.692;2023-04-03T07:42:59;3.50;72.00
78325;DHT22;67584;51.400;6.692;2023-04-03T07:45:25;3.60;72.60
78325;DHT22;67584;51.400;6.692;2023-04-03T07:47:51;3.80;71.90
78325;DHT22;67584;51.400;6.692;2023-04-03T07:50:17;3.80;70.40
78325;DHT22;67584;51.400;6.692;2023-04-03T07:52:43;4.00;70.50
78325;DHT22;67584;51.400;6.692;2023-04-03T07:55:09;3.90;70.10
78325;DHT22;67584;51.400;6.692;2023-04-03T07:57:35;4.00;67.80
78325;DHT22;67584;51.400;6.692;2023-04-03T08:00:03;4.10;66.80
78325;DHT22;67584;51.400;6.692;2023-04-03T08:02:37;4.20;66.80
78325;DHT22;67584;51.400;6.692;2023-04-03T08:05:03;4.40;65.80
78325;DHT22;67584;51.400;6.692;2023-04-03T08:07:29;4.60;66.50
78325;DHT22;67584;51.400;6.692;2023-04-03T08:09:54;4.70;64.10
78325;DHT22;67584;51.400;6.692;2023-04-03T08:12:20;4.70;63.10
78325;DHT22;67584;51.400;6.692;2023-04-03T08:14:46;4.80;61.70
78325;DHT22;67584;51.400;6.692;2023-04-03T08:17:11;4.80;63.80
78325;DHT22;67584;51.400;6.692;2023-04-03T08:19:39;5.20;62.90
78325;DHT22;67584;51.400;6.692;2023-04-03T08:22:04;5.30;60.30
78325;DHT22;67584;51.400;6.692;2023-04-03T08:24:32;5.40;59.50
78325;DHT22;67584;51.400;6.692;2023-04-03T08:26:58;5.60;58.30
78325;DHT22;67584;51.400;6.692;2023-04-03T08:29:24;5.50;58.00
78325;DHT22;67584;51.400;6.692;2023-04-03T08:31:50;5.70;55.90
78325;DHT22;67584;51.400;6.692;2023-04-03T08:34:16;5.60;55.00
78325;DHT22;67584;51.400;6.692;2023-04-03T08:36:43;5.80;54.90
78325;DHT22;67584;51.400;6.692;2023-04-03T08:39:09;5.80;55.30
78325;DHT22;67584;51.400;6.692;2023-04-03T08:41:37;6.00;54.90
78325;DHT22;67584;51.400;6.692;2023-04-03T08:50:07;6.30;49.90
78325;DHT22;67584;51.400;6.692;2023-04-03T08:52:38;6.30;48.80
78325;DHT22;67584;51.400;6.692;2023-04-03T08:55:29;6.50;49.60
78325;DHT22;67584;51.400;6.692;2023-04-03T08:58:05;6.30;47.10
78325;DHT22;67584;51.400;6.692;2023-04-03T09:01:15;6.60;48.30
78325;DHT22;67584;51.400;6.692;2023-04-03T09:03:42;7.00;49.40
78325;DHT22;67584;51.400;6.692;2023-04-03T09:06:19;7.10;48.70
78325;DHT22;67584;51.400;6.692;2023-04-03T09:08:55;7.30;49.50
78325;DHT22;67584;51.400;6.692;2023-04-03T09:11:26;7.50;49.30
78325;DHT22;67584;51.400;6.692;2023-04-03T09:14:07;7.60;48.10
78325;DHT22;67584;51.400;6.692;2023-04-03T09:16:56;7.30;45.60
78325;DHT22;67584;51.400;6.692;2023-04-03T09:19:45;7.40;44.80
78325;DHT22;67584;51.400;6.692;2023-04-03T09:22:21;7.70;44.90
78325;DHT22;67584;51.400;6.692;2023-04-03T09:25:13;8.00;43.40
78325;DHT22;67584;51.400;6.692;2023-04-03T09:27:40;7.70;41.60
78325;DHT22;67584;51.400;6.692;2023-04-03T09:30:16;7.60;39.90
78325;DHT22;67584;51.400;6.692;2023-04-03T09:32:45;7.90;41.10
78325;DHT22;67584;51.400;6.692;2023-04-03T09:35:24;7.80;39.90
78325;DHT22;67584;51.400;6.692;2023-04-03T09:37:53;7.80;39.50
78325;DHT22;67584;51.400;6.692;2023-04-03T09:40:29;7.80;40.40
78325;DHT22;67584;51.400;6.692;2023-04-03T09:45:43;8.60;38.10
78325;DHT22;67584;51.400;6.692;2023-04-03T09:53:38;9.70;36.30
78325;DHT22;67584;51.400;6.692;2023-04-03T10:01:38;11.60;35.00
78325;DHT22;67584;51.400;6.692;2023-04-03T10:04:12;12.00;32.50
78325;DHT22;67584;51.400;6.692;2023-04-03T10:06:50;12.10;31.70
78325;DHT22;67584;51.400;6.692;2023-04-03T10:14:56;12.40;30.40
78325;DHT22;67584;51.400;6.692;2023-04-03T10:19:48;13.60;30.50
78325;DHT22;67584;51.400;6.692;2023-04-03T10:27:55;14.10;29.40
78325;DHT22;67584;51.400;6.692;2023-04-03T10:33:18;14.20;27.60
78325;DHT22;67584;51.400;6.692;2023-04-03T10:54:24;16.10;27.40
78325;DHT22;67584;51.400;6.692;2023-04-03T10:56:55;15.80;27.70
78325;DHT22;67584;51.400;6.692;2023-04-03T11:04:48;17.10;27.50
78325;DHT22;67584;51.400;6.692;2023-04-03T11:07:22;18.50;26.40
78325;DHT22;67584;51.400;6.692;2023-04-03T11:09:52;18.10;25.50
78325;DHT22;67584;51.400;6.692;2023-04-03T11:12:30;18.00;25.30
78325;DHT22;67584;51.400;6.692;2023-04-03T11:14:59;17.80;25.20
78325;DHT22;67584;51.400;6.692;2023-04-03T11:17:33;17.60;25.80
78325;DHT22;67584;51.400;6.692;2023-04-03T11:20:03;18.30;25.30
78325;DHT22;67584;51.400;6.692;2023-04-03T11:23:03;19.00;25.20
78325;DHT22;67584;51.400;6.692;2023-04-03T11:25:31;20.10;24.00
78325;DHT22;67584;51.400;6.692;2023-04-03T11:28:01;20.20;22.90
78325;DHT22;67584;51.400;6.692;2023-04-03T11:35:45;20.10;24.80
78325;DHT22;67584;51.400;6.692;2023-04-03T11:38:15;20.10;24.30
78325;DHT22;67584;51.400;6.692;2023-04-03T11:40:44;20.40;24.70
78325;DHT22;67584;51.400;6.692;2023-04-03T11:43:26;20.70;23.60
78325;DHT22;67584;51.400;6.692;2023-04-03T11:46:01;20.00;23.90
78325;DHT22;67584;51.400;6.692;2023-04-03T11:50:55;20.10;23.50
78325;DHT22;67584;51.400;6.692;2023-04-03T11:53:29;19.70;24.50
78325;DHT22;67584;51.400;6.692;2023-04-03T11:55:58;20.20;24.80
78325;DHT22;67584;51.400;6.692;2023-04-03T11:58:33;21.20;23.90
78325;DHT22;67584;51.400;6.692;2023-04-03T12:01:08;21.40;23.50
78325;DHT22;67584;51.400;6.692;2023-04-03T12:13:42;21.10;23.90
78325;DHT22;67584;51.400;6.692;2023-04-03T12:26:43;21.60;22.50
78325;DHT22;67584;51.400;6.692;2023-04-03T12:29:17;22.10;22.90
78325;DHT22;67584;51.400;6.692;2023-04-03T12:34:56;21.70;22.50
78325;DHT22;67584;51.400;6.692;2023-04-03T12:51:22;23.30;20.30
78325;DHT22;67584;51.400;6.692;2023-04-03T12:53:53;24.40;19.20
78325;DHT22;67584;51.400;6.692;2023-04-03T12:56:31;23.90;20.70
78325;DHT22;67584;51.400;6.692;2023-04-03T12:59:16;24.40;19.70
78325;DHT22;67584;51.400;6.692;2023-04-03T13:01:43;24.50;19.20
78325;DHT22;67584;51.400;6.692;2023-04-03T13:04:11;24.50;19.30
78325;DHT22;67584;51.400;6.692;2023-04-03T13:06:40;24.80;19.40
78325;DHT22;67584;51.400;6.692;2023-04-03T13:09:17;24.80;18.90
78325;DHT22;67584;51.400;6.692;2023-04-03T13:11:44;24.30;20.10
78325;DHT22;67584;51.400;6.692;2023-04-03T13:14:22;23.90;20.10
78325;DHT22;67584;51.400;6.692;2023-04-03T13:16:56;24.70;20.10
78325;DHT22;67584;51.400;6.692;2023-04-03T13:19:24;25.20;19.60
78325;DHT22;67584;51.400;6.692;2023-04-03T13:21:57;25.40;19.90
78325;DHT22;67584;51.400;6.692;2023-04-03T13:24:24;26.10;18.70
78325;DHT22;67584;51.400;6.692;2023-04-03T13:26:51;24.70;20.30
78325;DHT22;67584;51.400;6.692;2023-04-03T13:29:31;25.40;20.10
78325;DHT22;67584;51.400;6.692;2023-04-03T13:31:57;25.20;19.00
78325;DHT22;67584;51.400;6.692;2023-04-03T13:34:26;25.70;18.70
78325;DHT22;67584;51.400;6.692;2023-04-03T13:39:23;26.60;18.50
78325;DHT22;67584;51.400;6.692;2023-04-03T13:41:57;26.40;17.80
78325;DHT22;67584;51.400;6.692;2023-04-03T13:46:51;27.20;18.20
78325;DHT22;67584;51.400;6.692;2023-04-03T13:49:35;27.20;17.60
78325;DHT22;67584;51.400;6.692;2023-04-03T13:54:53;26.20;17.60
78325;DHT22;67584;51.400;6.692;2023-04-03T13:57:19;25.60;19.00
78325;DHT22;67584;51.400;6.692;2023-04-03T13:59:45;25.50;18.20
78325;DHT22;67584;51.400;6.692;2023-04-03T14:02:32;25.10;18.40
78325;DHT22;67584;51.400;6.692;2023-04-03T14:05:01;25.00;18.40
78325;DHT22;67584;51.400;6.692;2023-04-03T14:07:30;26.20;18.70
78325;DHT22;67584;51.400;6.692;2023-04-03T14:09:56;26.80;18.00
78325;DHT22;67584;51.400;6.692;2023-04-03T14:12:33;28.20;18.10
78325;DHT22;67584;51.400;6.692;2023-04-03T14:15:01;29.50;16.50
78325;DHT22;67584;51.400;6.692;2023-04-03T14:17:28;29.80;16.20
78325;DHT22;67584;51.400;6.692;2023-04-03T14:19:55;28.60;16.90
78325;DHT22;67584;51.400;6.692;2023-04-03T14:22:27;28.00;16.90
78325;DHT22;67584;51.400;6.692;2023-04-03T14:24:55;26.20;18.40
78325;DHT22;67584;51.400;6.692;2023-04-03T14:27:27;26.40;17.90
78325;DHT22;67584;51.400;6.692;2023-04-03T14:29:56;26.90;17.80
78325;DHT22;67584;51.400;6.692;2023-04-03T14:32:24;26.90;17.60
78325;DHT22;67584;51.400;6.692;2023-04-03T14:34:50;27.50;17.00
78325;DHT22;67584;51.400;6.692;2023-04-03T14:37:22;28.00;16.60
78325;DHT22;67584;51.400;6.692;2023-04-03T14:39:48;27.80;16.90
78325;DHT22;67584;51.400;6.692;2023-04-03T14:42:23;27.70;17.70
78325;DHT22;67584;51.400;6.692;2023-04-03T14:44:50;26.80;17.30
78325;DHT22;67584;51.400;6.692;2023-04-03T14:47:19;25.60;18.70
78325;DHT22;67584;51.400;6.692;2023-04-03T14:49:46;26.40;18.70
78325;DHT22;67584;51.400;6.692;2023-04-03T14:52:28;26.90;17.60
78325;DHT22;67584;51.400;6.692;2023-04-03T14:54:56;26.50;18.10
78325;DHT22;67584;51.400;6.692;2023-04-03T14:57:24;27.10;17.80
78325;DHT22;67584;51.400;6.692;2023-04-03T14:59:50;27.80;17.00
78325;DHT22;67584;51.400;6.692;2023-04-03T15:02:29;27.80;17.60
78325;DHT22;67584;51.400;6.692;2023-04-03T15:04:56;26.90;17.50
78325;DHT22;67584;51.400;6.692;2023-04-03T15:07:24;27.80;17.90
78325;DHT22;67584;51.400;6.692;2023-04-03T15:09:50;26.80;17.80
78325;DHT22;67584;51.400;6.692;2023-04-03T15:12:16;26.20;17.80
78325;DHT22;67584;51.400;6.692;2023-04-03T15:14:42;26.10;18.30
78325;DHT22;67584;51.400;6.692;2023-04-03T15:17:15;26.40;18.60
78325;DHT22;67584;51.400;6.692;2023-04-03T15:19:42;25.40;19.10
78325;DHT22;67584;51.400;6.692;2023-04-03T15:22:16;25.90;18.20
78325;DHT22;67584;51.400;6.692;2023-04-03T15:24:42;24.80;18.80
78325;DHT22;67584;51.400;6.692;2023-04-03T15:27:10;24.50;19.00
78325;DHT22;67584;51.400;6.692;2023-04-03T15:29:36;25.20;19.10
78325;DHT22;67584;51.400;6.692;2023-04-03T15:32:02;25.80;18.60
78325;DHT22;67584;51.400;6.692;2023-04-03T15:34:28;25.60;18.90
78325;DHT22;67584;51.400;6.692;2023-04-03T15:36:54;24.80;18.90
78325;DHT22;67584;51.400;6.692;2023-04-03T15:39:20;24.90;19.10
78325;DHT22;67584;51.400;6.692;2023-04-03T15:41:47;25.30;19.10
78325;DHT22;67584;51.400;6.692;2023-04-03T15:44:12;25.30;19.50
78325;DHT22;67584;51.400;6.692;2023-04-03T15:46:39;26.40;17.60
78325;DHT22;67584;51.400;6.692;2023-04-03T15:49:06;25.90;17.90
78325;DHT22;67584;51.400;6.692;2023-04-03T15:51:32;24.80;19.00
78325;DHT22;67584;51.400;6.692;2023-04-03T15:53:57;24.40;19.40
78325;DHT22;67584;51.400;6.692;2023-04-03T15:56:23;24.40;19.00
78325;DHT22;67584;51.400;6.692;2023-04-03T15:58:49;25.10;19.20
78325;DHT22;67584;51.400;6.692;2023-04-03T16:01:14;24.00;19.50
78325;DHT22;67584;51.400;6.692;2023-04-03T16:03:42;24.20;19.70
78325;DHT22;67584;51.400;6.692;2023-04-03T16:06:16;23.30;20.00
78325;DHT22;67584;51.400;6.692;2023-04-03T16:08:44;23.10;20.40
78325;DHT22;67584;51.400;6.692;2023-04-03T16:11:10;22.70;20.80
78325;DHT22;67584;51.400;6.692;2023-04-03T16:13:36;23.50;20.00
78325;DHT22;67584;51.400;6.692;2023-04-03T16:16:02;23.10;20.20
78325;DHT22;67584;51.400;6.692;2023-04-03T16:18:29;23.30;20.30
78325;DHT22;67584;51.400;6.692;2023-04-03T16:20:55;23.60;20.30
78325;DHT22;67584;51.400;6.692;2023-04-03T16:23:21;23.50;20.00
78325;DHT22;67584;51.400;6.692;2023-04-03T16:25:47;22.20;21.10
78325;DHT22;67584;51.400;6.692;2023-04-03T16:28:14;22.20;21.30
78325;DHT22;67584;51.400;6.692;2023-04-03T16:30:41;22.60;21.10
78325;DHT22;67584;51.400;6.692;2023-04-03T16:33:09;22.90;20.80
78325;DHT22;67584;51.400;6.692;2023-04-03T16:35:35;23.10;20.50
78325;DHT22;67584;51.400;6.692;2023-04-03T16:38:01;23.00;20.50
78325;DHT22;67584;51.400;6.692;2023-04-03T16:40:26;23.10;21.00
78325;DHT22;67584;51.400;6.692;2023-04-03T16:42:52;23.40;20.50
78325;DHT22;67584;51.400;6.692;2023-04-03T16:45:18;23.80;20.60
78325;DHT22;67584;51.400;6.692;2023-04-03T16:47:44;23.70;20.10
78325;DHT22;67584;51.400;6.692;2023-04-03T16:50:10;21.90;21.00
78325;DHT22;67584;51.400;6.692;2023-04-03T16:52:36;21.20;21.80
78325;DHT22;67584;51.400;6.692;2023-04-03T16:55:03;21.60;22.20
78325;DHT22;67584;51.400;6.692;2023-04-03T16:57:29;21.40;22.10
78325;DHT22;67584;51.400;6.692;2023-04-03T16:59:56;21.50;22.10
78325;DHT22;67584;51.400;6.692;2023-04-03T17:02:24;21.00;22.50
78325;DHT22;67584;51.400;6.692;2023-04-03T17:04:55;21.00;22.80
78325;DHT22;67584;51.400;6.692;2023-04-03T17:07:22;20.30;23.50
78325;DHT22;67584;51.400;6.692;2023-04-03T17:09:48;19.50;24.00
78325;DHT22;67584;51.400;6.692;2023-04-03T17:12:14;19.40;24.10
78325;DHT22;67584;51.400;6.692;2023-04-03T17:14:42;19.70;24.40
78325;DHT22;67584;51.400;6.692;2023-04-03T17:17:08;20.20;25.10
78325;DHT22;67584;51.400;6.692;2023-04-03T17:19:35;19.20;24.00
78325;DHT22;67584;51.400;6.692;2023-04-03T17:22:02;18.60;24.60
78325;DHT22;67584;51.400;6.692;2023-04-03T17:24:30;18.00;25.80
78325;DHT22;67584;51.400;6.692;2023-04-03T17:26:55;17.30;26.60
78325;DHT22;67584;51.400;6.692;2023-04-03T17:29:21;17.20;26.30
78325;DHT22;67584;51.400;6.692;2023-04-03T17:31:48;16.80;26.90
78325;DHT22;67584;51.400;6.692;2023-04-03T17:34:14;16.60;27.20
78325;DHT22;67584;51.400;6.692;2023-04-03T17:36:41;16.20;28.00